createdAt,value
2022-09-26T00:00:30.160Z,0.00
2022-09-26T00:01:30.411Z,0.00
2022-09-26T00:02:30.164Z,0.00
2022-09-26T00:03:30.047Z,0.00
2022-09-26T00:04:32.850Z,0.00
2022-09-26T00:05:29.973Z,0.00
2022-09-26T00:06:29.939Z,0.00
2022-09-26T00:07:29.906Z,0.00
2022-09-26T00:08:29.895Z,0.00
2022-09-26T00:09:29.836Z,0.00
2022-09-26T00:10:29.799Z,0.00
2022-09-26T00:11:29.797Z,0.00
2022-09-26T00:12:29.728Z,0.00
2022-09-26T00:13:29.692Z,0.00
2022-09-26T00:14:29.663Z,0.00
2022-09-26T00:15:29.643Z,0.00
2022-09-26T00:16:29.628Z,0.00
2022-09-26T00:17:29.557Z,0.00
2022-09-26T00:18:29.521Z,0.00
2022-09-26T00:19:29.484Z,0.00
2022-09-26T00:20:29.450Z,0.00
2022-09-26T00:21:29.429Z,0.00
2022-09-26T00:22:29.380Z,0.00
2022-09-26T00:23:29.342Z,0.00
2022-09-26T00:24:29.317Z,0.00
2022-09-26T00:25:29.277Z,0.00
2022-09-26T00:26:29.242Z,0.00
2022-09-26T00:27:29.211Z,0.00
2022-09-26T00:28:29.175Z,0.00
2022-09-26T00:29:29.141Z,0.00
2022-09-26T00:30:29.153Z,0.00
2022-09-26T00:31:29.071Z,0.00
2022-09-26T00:32:29.039Z,0.00
2022-09-26T00:33:29.086Z,0.00
2022-09-26T00:34:28.965Z,0.00
2022-09-26T00:35:28.928Z,0.00
2022-09-26T00:36:37.613Z,0.00
2022-09-26T00:37:28.872Z,0.00
2022-09-26T00:38:28.829Z,0.00
2022-09-26T00:39:28.797Z,0.00
2022-09-26T00:40:28.802Z,0.00
2022-09-26T00:41:28.752Z,0.00
2022-09-26T00:42:28.688Z,0.00
2022-09-26T00:43:28.649Z,0.00
2022-09-26T00:44:28.617Z,0.00
2022-09-26T00:45:28.592Z,0.00
2022-09-26T00:46:28.590Z,0.00
2022-09-26T00:47:28.516Z,0.00
2022-09-26T00:48:28.478Z,0.00
2022-09-26T00:49:28.446Z,0.00
2022-09-26T00:50:28.408Z,0.00
2022-09-26T00:51:28.373Z,0.00
2022-09-26T00:52:28.340Z,0.00
2022-09-26T00:53:28.309Z,0.00
2022-09-26T00:54:28.266Z,0.00
2022-09-26T00:55:28.232Z,0.00
2022-09-26T00:56:28.203Z,0.00
2022-09-26T00:57:28.159Z,0.00
2022-09-26T00:58:28.137Z,0.00
2022-09-26T00:59:28.091Z,0.00
2022-09-26T01:00:28.064Z,0.00
2022-09-26T01:01:28.166Z,0.00
2022-09-26T01:02:28.139Z,0.00
2022-09-26T01:03:27.956Z,0.00
2022-09-26T01:04:27.923Z,0.00
2022-09-26T01:05:27.885Z,0.00
2022-09-26T01:06:27.862Z,0.00
2022-09-26T01:07:27.815Z,0.00
2022-09-26T01:08:27.780Z,0.00
2022-09-26T01:09:27.745Z,0.00
2022-09-26T01:10:27.714Z,0.00
2022-09-26T01:11:27.671Z,0.00
2022-09-26T01:12:27.641Z,0.00
2022-09-26T01:13:27.605Z,0.00
2022-09-26T01:14:27.573Z,0.00
2022-09-26T01:15:27.535Z,0.00
2022-09-26T01:16:27.530Z,0.00
2022-09-26T01:17:27.465Z,0.00
2022-09-26T01:18:27.432Z,0.00
2022-09-26T01:19:27.398Z,0.00
2022-09-26T01:20:27.360Z,0.00
2022-09-26T01:21:27.410Z,0.00
2022-09-26T01:22:27.308Z,0.00
2022-09-26T01:23:27.254Z,0.00
2022-09-26T01:24:27.222Z,0.00
2022-09-26T01:25:27.188Z,0.00
2022-09-26T01:26:27.155Z,0.00
2022-09-26T01:27:27.114Z,0.00
2022-09-26T01:28:27.080Z,0.00
2022-09-26T01:29:27.071Z,0.00
2022-09-26T01:30:27.071Z,0.00
2022-09-26T01:31:27.011Z,0.00
2022-09-26T01:32:26.941Z,0.00
2022-09-26T01:33:26.912Z,0.00
2022-09-26T01:34:26.872Z,0.00
2022-09-26T01:35:26.840Z,0.00
2022-09-26T01:36:26.804Z,0.00
2022-09-26T01:37:26.769Z,0.00
2022-09-26T01:38:26.735Z,0.00
2022-09-26T01:39:26.694Z,0.00
2022-09-26T01:40:26.707Z,0.00
2022-09-26T01:41:26.630Z,0.00
2022-09-26T01:42:26.595Z,0.00
2022-09-26T01:43:26.560Z,0.00
2022-09-26T01:44:26.532Z,0.00
2022-09-26T01:45:26.496Z,0.00
2022-09-26T01:46:26.544Z,0.00
2022-09-26T01:47:26.418Z,0.00
2022-09-26T01:48:26.532Z,0.00
2022-09-26T01:49:26.350Z,0.00
2022-09-26T01:50:26.310Z,0.00
2022-09-26T01:51:26.276Z,0.00
2022-09-26T01:52:26.266Z,0.00
2022-09-26T01:53:26.210Z,0.00
2022-09-26T01:54:26.174Z,0.00
2022-09-26T01:55:26.136Z,0.00
2022-09-26T01:56:26.116Z,0.00
2022-09-26T01:57:26.071Z,0.00
2022-09-26T01:58:26.034Z,0.00
2022-09-26T01:59:26.000Z,0.00
2022-09-26T02:00:25.970Z,0.00
2022-09-26T02:01:25.999Z,0.00
2022-09-26T02:02:25.982Z,0.00
2022-09-26T02:03:25.858Z,0.00
2022-09-26T02:04:25.826Z,0.00
2022-09-26T02:05:25.794Z,0.00
2022-09-26T02:06:25.754Z,0.00
2022-09-26T02:07:25.725Z,0.00
2022-09-26T02:08:25.691Z,0.00
2022-09-26T02:09:25.751Z,0.00
2022-09-26T02:10:25.616Z,0.00
2022-09-26T02:11:25.582Z,0.00
2022-09-26T02:12:25.550Z,0.00
2022-09-26T02:13:25.517Z,0.00
2022-09-26T02:14:25.506Z,0.00
2022-09-26T02:15:25.441Z,0.00
2022-09-26T02:16:25.425Z,0.00
2022-09-26T02:17:25.373Z,0.00
2022-09-26T02:18:25.346Z,0.00
2022-09-26T02:19:25.303Z,0.00
2022-09-26T02:20:25.273Z,0.00
2022-09-26T02:21:25.235Z,0.00
2022-09-26T02:22:25.200Z,0.00
2022-09-26T02:23:25.170Z,0.00
2022-09-26T02:24:25.132Z,0.00
2022-09-26T02:25:25.098Z,0.00
2022-09-26T02:26:25.067Z,0.00
2022-09-26T02:27:25.033Z,0.00
2022-09-26T02:28:24.989Z,0.00
2022-09-26T02:29:24.955Z,0.00
2022-09-26T02:30:24.924Z,0.00
2022-09-26T02:31:24.934Z,0.00
2022-09-26T02:32:24.854Z,0.00
2022-09-26T02:33:24.824Z,0.00
2022-09-26T02:34:24.782Z,0.00
2022-09-26T02:35:24.747Z,0.00
2022-09-26T02:36:24.714Z,0.00
2022-09-26T02:37:24.689Z,0.00
2022-09-26T02:38:24.641Z,0.00
2022-09-26T02:39:24.609Z,0.00
2022-09-26T02:40:24.621Z,0.00
2022-09-26T02:41:24.544Z,0.00
2022-09-26T02:42:24.502Z,0.00
2022-09-26T02:43:24.487Z,0.00
2022-09-26T02:44:24.434Z,0.00
2022-09-26T02:45:24.431Z,0.00
2022-09-26T02:46:24.366Z,0.00
2022-09-26T02:47:24.327Z,0.00
2022-09-26T02:48:24.295Z,0.00
2022-09-26T02:49:24.260Z,0.00
2022-09-26T02:50:24.225Z,0.00
2022-09-26T02:51:24.194Z,0.00
2022-09-26T02:52:24.160Z,0.00
2022-09-26T02:53:24.123Z,0.00
2022-09-26T02:54:24.091Z,0.00
2022-09-26T02:55:24.056Z,0.00
2022-09-26T02:56:24.021Z,0.00
2022-09-26T02:57:23.986Z,0.00
2022-09-26T02:58:23.961Z,0.00
2022-09-26T02:59:23.912Z,0.00
2022-09-26T03:00:23.879Z,0.00
2022-09-26T03:01:23.888Z,0.00
2022-09-26T03:02:23.816Z,0.00
2022-09-26T03:03:23.797Z,0.00
2022-09-26T03:04:23.802Z,0.00
2022-09-26T03:05:23.703Z,0.00
2022-09-26T03:06:23.672Z,0.00
2022-09-26T03:07:23.635Z,0.00
2022-09-26T03:08:23.601Z,0.00
2022-09-26T03:09:23.583Z,0.00
2022-09-26T03:10:23.535Z,0.00
2022-09-26T03:11:23.499Z,0.00
2022-09-26T03:12:23.466Z,0.00
2022-09-26T03:13:23.439Z,0.00
2022-09-26T03:14:23.392Z,0.00
2022-09-26T03:15:23.357Z,0.00
2022-09-26T03:16:23.365Z,0.00
2022-09-26T03:17:23.292Z,0.00
2022-09-26T03:18:23.252Z,0.00
2022-09-26T03:19:23.215Z,0.00
2022-09-26T03:20:23.183Z,0.00
2022-09-26T03:21:23.172Z,0.00
2022-09-26T03:22:23.114Z,0.00
2022-09-26T03:23:23.080Z,0.00
2022-09-26T03:24:23.044Z,0.00
2022-09-26T03:25:23.012Z,0.00
2022-09-26T03:26:22.980Z,0.00
2022-09-26T03:27:22.943Z,0.00
2022-09-26T03:28:22.905Z,0.00
2022-09-26T03:29:22.894Z,0.00
2022-09-26T03:30:22.840Z,0.00
2022-09-26T03:31:22.838Z,0.00
2022-09-26T03:32:22.767Z,0.00
2022-09-26T03:33:22.778Z,0.00
2022-09-26T03:34:22.699Z,0.00
2022-09-26T03:35:22.664Z,0.00
2022-09-26T03:36:22.635Z,0.00
2022-09-26T03:37:23.574Z,0.00
2022-09-26T03:38:22.564Z,0.00
2022-09-26T03:39:22.522Z,0.00
2022-09-26T03:40:22.584Z,0.00
2022-09-26T03:41:22.474Z,0.00
2022-09-26T03:42:22.470Z,0.00
2022-09-26T03:43:22.389Z,0.00
2022-09-26T03:44:22.351Z,0.00
2022-09-26T03:45:22.393Z,0.00
2022-09-26T03:46:22.287Z,0.00
2022-09-26T03:47:22.249Z,0.00
2022-09-26T03:48:22.223Z,0.00
2022-09-26T03:49:22.177Z,0.00
2022-09-26T03:50:22.142Z,0.00
2022-09-26T03:51:22.110Z,0.00
2022-09-26T03:52:22.075Z,0.00
2022-09-26T03:53:22.043Z,0.00
2022-09-26T03:54:22.021Z,0.00
2022-09-26T03:55:21.973Z,0.00
2022-09-26T03:56:21.935Z,0.00
2022-09-26T03:57:21.901Z,0.00
2022-09-26T03:58:21.875Z,0.00
2022-09-26T03:59:21.830Z,0.00
2022-09-26T04:00:21.801Z,0.00
2022-09-26T04:01:21.864Z,0.00
2022-09-26T04:02:21.771Z,0.00
2022-09-26T04:03:21.696Z,0.00
2022-09-26T04:04:21.662Z,0.00
2022-09-26T04:05:21.627Z,0.00
2022-09-26T04:06:21.611Z,0.00
2022-09-26T04:07:21.554Z,0.00
2022-09-26T04:08:21.518Z,0.00
2022-09-26T04:09:21.891Z,0.00
2022-09-26T04:10:21.449Z,0.00
2022-09-26T04:11:21.415Z,0.00
2022-09-26T04:12:21.381Z,0.00
2022-09-26T04:13:49.446Z,0.00
2022-09-26T04:14:21.311Z,0.00
2022-09-26T04:15:21.275Z,0.00
2022-09-26T04:16:21.322Z,0.00
2022-09-26T04:17:21.211Z,0.00
2022-09-26T04:18:21.175Z,0.00
2022-09-26T04:19:21.137Z,0.00
2022-09-26T04:20:21.104Z,0.00
2022-09-26T04:21:21.070Z,0.00
2022-09-26T04:22:21.044Z,0.00
2022-09-26T04:23:21.007Z,0.00
2022-09-26T04:24:20.965Z,0.00
2022-09-26T04:25:20.935Z,0.00
2022-09-26T04:26:23.762Z,0.00
2022-09-26T04:27:20.863Z,0.00
2022-09-26T04:28:20.824Z,0.00
2022-09-26T04:29:20.791Z,0.00
2022-09-26T04:30:20.757Z,0.00
2022-09-26T04:31:20.755Z,0.00
2022-09-26T04:32:20.684Z,0.00
2022-09-26T04:33:20.653Z,0.00
2022-09-26T04:34:26.284Z,0.00
2022-09-26T04:35:20.581Z,0.00
2022-09-26T04:36:20.547Z,0.00
2022-09-26T04:37:20.510Z,0.00
2022-09-26T04:38:20.475Z,0.00
2022-09-26T04:39:20.439Z,0.00
2022-09-26T04:40:20.462Z,0.00
2022-09-26T04:41:20.370Z,0.00
2022-09-26T04:42:20.336Z,0.00
2022-09-26T04:43:20.300Z,0.00
2022-09-26T04:44:20.273Z,0.00
2022-09-26T04:45:20.231Z,0.00
2022-09-26T04:46:22.847Z,0.00
2022-09-26T04:47:20.156Z,0.00
2022-09-26T04:48:20.124Z,0.00
2022-09-26T04:49:20.091Z,0.00
2022-09-26T04:50:20.053Z,0.00
2022-09-26T04:51:20.019Z,0.00
2022-09-26T04:52:19.984Z,0.00
2022-09-26T04:53:19.955Z,0.00
2022-09-26T04:54:19.914Z,0.00
2022-09-26T04:55:19.876Z,0.00
2022-09-26T04:56:19.845Z,0.00
2022-09-26T04:57:20.087Z,0.00
2022-09-26T04:58:19.796Z,0.00
2022-09-26T04:59:19.739Z,0.00
2022-09-26T05:00:19.702Z,0.00
2022-09-26T05:01:19.845Z,0.00
2022-09-26T05:02:19.701Z,0.00
2022-09-26T05:03:19.597Z,0.00
2022-09-26T05:04:22.784Z,0.00
2022-09-26T05:05:19.618Z,0.00
2022-09-26T05:06:19.505Z,0.00
2022-09-26T05:07:19.459Z,4.00
2022-09-26T05:08:19.422Z,4.00
2022-09-26T05:09:19.388Z,0.00
2022-09-26T05:10:19.354Z,0.00
2022-09-26T05:11:19.321Z,4.00
2022-09-26T05:12:19.282Z,4.00
2022-09-26T05:13:19.258Z,0.00
2022-09-26T05:14:19.214Z,4.00
2022-09-26T05:15:19.192Z,8.00
2022-09-26T05:16:19.215Z,4.00
2022-09-26T05:17:19.108Z,8.00
2022-09-26T05:18:19.073Z,8.00
2022-09-26T05:19:19.035Z,8.00
2022-09-26T05:20:19.019Z,12.00
2022-09-26T05:21:18.980Z,12.00
2022-09-26T05:22:18.949Z,12.00
2022-09-26T05:23:18.897Z,12.00
2022-09-26T05:24:18.863Z,16.00
2022-09-26T05:25:18.826Z,20.00
2022-09-26T05:26:18.796Z,20.00
2022-09-26T05:27:18.759Z,20.00
2022-09-26T05:28:18.727Z,24.00
2022-09-26T05:29:18.778Z,24.00
2022-09-26T05:30:18.657Z,24.00
2022-09-26T05:31:18.763Z,24.00
2022-09-26T05:32:18.584Z,28.00
2022-09-26T05:33:18.547Z,32.00
2022-09-26T05:34:20.020Z,36.00
2022-09-26T05:35:18.477Z,36.00
2022-09-26T05:36:18.443Z,36.00
2022-09-26T05:37:18.409Z,36.00
2022-09-26T05:38:18.372Z,40.00
2022-09-26T05:39:18.335Z,40.00
2022-09-26T05:40:18.396Z,44.00
2022-09-26T05:41:18.273Z,56.00
2022-09-26T05:42:18.232Z,60.00
2022-09-26T05:43:18.214Z,64.00
2022-09-26T05:44:18.162Z,68.00
2022-09-26T05:45:18.128Z,76.00
2022-09-26T05:46:18.119Z,80.00
2022-09-26T05:47:18.059Z,84.00
2022-09-26T05:48:18.025Z,88.00
2022-09-26T05:49:17.988Z,96.00
2022-09-26T05:50:17.956Z,100.00
2022-09-26T05:51:17.918Z,104.00
2022-09-26T05:52:17.886Z,112.00
2022-09-26T05:53:17.855Z,120.00
2022-09-26T05:54:17.811Z,124.00
2022-09-26T05:55:17.775Z,132.00
2022-09-26T05:56:18.738Z,136.00
2022-09-26T05:57:17.708Z,148.00
2022-09-26T05:58:17.671Z,156.00
2022-09-26T05:59:17.637Z,164.00
2022-09-26T06:00:17.624Z,172.00
2022-09-26T06:01:17.602Z,184.00
2022-09-26T06:02:20.851Z,196.00
2022-09-26T06:03:17.498Z,212.00
2022-09-26T06:04:17.468Z,228.00
2022-09-26T06:05:17.430Z,240.00
2022-09-26T06:06:17.392Z,252.00
2022-09-26T06:07:17.358Z,264.00
2022-09-26T06:08:17.362Z,280.00
2022-09-26T06:09:17.307Z,296.00
2022-09-26T06:10:17.255Z,312.00
2022-09-26T06:11:17.241Z,328.00
2022-09-26T06:12:17.197Z,344.00
2022-09-26T06:13:17.150Z,360.00
2022-09-26T06:14:17.123Z,380.00
2022-09-26T06:15:17.084Z,396.00
2022-09-26T06:16:17.114Z,416.00
2022-09-26T06:17:17.014Z,440.00
2022-09-26T06:18:17.002Z,464.00
2022-09-26T06:19:22.043Z,480.00
2022-09-26T06:20:16.908Z,496.00
2022-09-26T06:21:16.887Z,516.00
2022-09-26T06:22:16.841Z,532.00
2022-09-26T06:23:16.805Z,540.00
2022-09-26T06:24:16.770Z,548.00
2022-09-26T06:25:16.752Z,544.00
2022-09-26T06:26:16.701Z,544.00
2022-09-26T06:27:16.671Z,544.00
2022-09-26T06:28:16.651Z,540.00
2022-09-26T06:29:16.600Z,532.00
2022-09-26T06:30:16.621Z,532.00
2022-09-26T06:31:16.631Z,528.00
2022-09-26T06:32:16.496Z,528.00
2022-09-26T06:33:16.466Z,524.00
2022-09-26T06:34:16.427Z,524.00
2022-09-26T06:35:16.402Z,520.00
2022-09-26T06:36:16.357Z,516.00
2022-09-26T06:37:16.339Z,512.00
2022-09-26T06:38:16.290Z,504.00
2022-09-26T06:39:16.453Z,500.00
2022-09-26T06:40:16.259Z,496.00
2022-09-26T06:41:16.187Z,488.00
2022-09-26T06:42:16.151Z,484.00
2022-09-26T06:43:16.115Z,480.00
2022-09-26T06:44:16.089Z,484.00
2022-09-26T06:45:16.045Z,484.00
2022-09-26T06:46:16.187Z,488.00
2022-09-26T06:47:16.093Z,496.00
2022-09-26T06:48:17.368Z,500.00
2022-09-26T06:49:16.008Z,512.00
2022-09-26T06:50:15.875Z,528.00
2022-09-26T06:51:15.865Z,536.00
2022-09-26T06:52:15.985Z,548.00
2022-09-26T06:53:15.777Z,564.00
2022-09-26T06:54:15.743Z,576.00
2022-09-26T06:55:15.708Z,588.00
2022-09-26T06:56:15.673Z,604.00
2022-09-26T06:57:15.650Z,616.00
2022-09-26T06:58:15.605Z,632.00
2022-09-26T06:59:15.731Z,648.00
2022-09-26T07:00:15.536Z,664.00
2022-09-26T07:01:15.667Z,676.00
2022-09-26T07:02:15.498Z,688.00
2022-09-26T07:03:15.460Z,696.00
2022-09-26T07:04:15.398Z,704.00
2022-09-26T07:05:15.366Z,712.00
2022-09-26T07:06:15.327Z,716.00
2022-09-26T07:07:15.295Z,712.00
2022-09-26T07:08:15.267Z,704.00
2022-09-26T07:09:15.443Z,688.00
2022-09-26T07:10:15.192Z,660.00
2022-09-26T07:11:35.320Z,632.00
2022-09-26T07:12:15.904Z,612.00
2022-09-26T07:13:15.093Z,608.00
2022-09-26T07:14:15.062Z,612.00
2022-09-26T07:15:15.021Z,620.00
2022-09-26T07:16:15.039Z,640.00
2022-09-26T07:17:14.957Z,656.00
2022-09-26T07:18:14.926Z,664.00
2022-09-26T07:19:15.078Z,676.00
2022-09-26T07:20:14.853Z,668.00
2022-09-26T07:21:14.820Z,660.00
2022-09-26T07:22:14.814Z,640.00
2022-09-26T07:23:14.753Z,628.00
2022-09-26T07:24:14.724Z,608.00
2022-09-26T07:25:14.685Z,580.00
2022-09-26T07:26:14.677Z,568.00
2022-09-26T07:27:14.620Z,556.00
2022-09-26T07:28:14.586Z,540.00
2022-09-26T07:29:14.766Z,528.00
2022-09-26T07:30:14.516Z,512.00
2022-09-26T07:31:14.500Z,508.00
2022-09-26T07:32:14.457Z,504.00
2022-09-26T07:33:14.436Z,500.00
2022-09-26T07:34:18.009Z,488.00
2022-09-26T07:35:14.352Z,468.00
2022-09-26T07:36:14.311Z,436.00
2022-09-26T07:37:14.279Z,392.00
2022-09-26T07:38:14.242Z,352.00
2022-09-26T07:39:14.322Z,328.00
2022-09-26T07:40:14.232Z,324.00
2022-09-26T07:41:14.143Z,324.00
2022-09-26T07:42:14.108Z,336.00
2022-09-26T07:43:31.976Z,348.00
2022-09-26T07:45:28.778Z,376.00
2022-09-26T07:46:14.062Z,396.00
2022-09-26T07:47:13.938Z,412.00
2022-09-26T07:48:13.906Z,428.00
2022-09-26T07:49:13.894Z,432.00
2022-09-26T07:50:13.839Z,428.00
2022-09-26T07:51:13.800Z,416.00
2022-09-26T07:52:13.772Z,404.00
2022-09-26T07:53:13.733Z,408.00
2022-09-26T07:54:13.818Z,404.00
2022-09-26T07:55:13.673Z,388.00
2022-09-26T07:56:13.635Z,384.00
2022-09-26T07:57:13.595Z,384.00
2022-09-26T07:58:13.563Z,372.00
2022-09-26T07:59:13.526Z,360.00
2022-09-26T08:00:13.493Z,352.00
2022-09-26T08:01:13.689Z,352.00
2022-09-26T08:02:13.530Z,344.00
2022-09-26T08:03:13.447Z,348.00
2022-09-26T08:04:13.366Z,340.00
2022-09-26T08:05:13.323Z,340.00
2022-09-26T08:06:13.284Z,336.00
2022-09-26T08:07:13.269Z,336.00
2022-09-26T08:08:13.220Z,336.00
2022-09-26T08:09:13.189Z,340.00
2022-09-26T08:10:13.153Z,344.00
2022-09-26T08:11:13.109Z,340.00
2022-09-26T08:12:13.079Z,340.00
2022-09-26T08:13:13.043Z,336.00
2022-09-26T08:14:13.065Z,332.00
2022-09-26T08:15:12.973Z,332.00
2022-09-26T08:16:13.014Z,332.00
2022-09-26T08:17:14.329Z,336.00
2022-09-26T08:18:12.868Z,336.00
2022-09-26T08:19:12.903Z,336.00
2022-09-26T08:20:12.807Z,340.00
2022-09-26T08:21:12.767Z,348.00
2022-09-26T08:22:12.728Z,364.00
2022-09-26T08:23:12.711Z,380.00
2022-09-26T08:24:12.719Z,400.00
2022-09-26T08:25:12.660Z,424.00
2022-09-26T08:26:12.595Z,448.00
2022-09-26T08:27:12.555Z,460.00
2022-09-26T08:28:12.519Z,472.00
2022-09-26T08:29:12.573Z,476.00
2022-09-26T08:30:12.459Z,484.00
2022-09-26T08:31:12.514Z,496.00
2022-09-26T08:32:12.378Z,512.00
2022-09-26T08:33:12.351Z,532.00
2022-09-26T08:34:12.359Z,552.00
2022-09-26T08:35:12.275Z,580.00
2022-09-26T08:36:12.239Z,600.00
2022-09-26T08:37:12.205Z,608.00
2022-09-26T08:38:12.192Z,608.00
2022-09-26T08:39:12.214Z,604.00
2022-09-26T08:40:12.174Z,580.00
2022-09-26T08:41:12.065Z,548.00
2022-09-26T08:42:12.034Z,500.00
2022-09-26T08:43:11.991Z,472.00
2022-09-26T08:44:11.992Z,444.00
2022-09-26T08:45:11.924Z,436.00
2022-09-26T08:46:11.929Z,428.00
2022-09-26T08:47:11.856Z,428.00
2022-09-26T08:48:11.820Z,436.00
2022-09-26T08:49:11.789Z,440.00
2022-09-26T08:50:11.750Z,440.00
2022-09-26T08:51:11.733Z,448.00
2022-09-26T08:52:11.679Z,456.00
2022-09-26T08:53:11.648Z,456.00
2022-09-26T08:54:11.680Z,460.00
2022-09-26T08:55:11.578Z,468.00
2022-09-26T08:56:11.545Z,468.00
2022-09-26T08:57:11.505Z,488.00
2022-09-26T08:58:11.474Z,500.00
2022-09-26T08:59:11.437Z,516.00
2022-09-26T09:00:11.400Z,528.00
2022-09-26T09:01:11.417Z,540.00
2022-09-26T09:02:11.400Z,552.00
2022-09-26T09:03:11.346Z,564.00
2022-09-26T09:04:11.262Z,576.00
2022-09-26T09:05:11.231Z,572.00
2022-09-26T09:06:11.214Z,548.00
2022-09-26T09:07:11.153Z,520.00
2022-09-26T09:08:11.123Z,520.00
2022-09-26T09:09:11.104Z,532.00
2022-09-26T09:10:11.149Z,548.00
2022-09-26T09:11:11.017Z,584.00
2022-09-26T09:12:10.985Z,608.00
2022-09-26T09:13:10.959Z,628.00
2022-09-26T09:14:10.919Z,628.00
2022-09-26T09:15:26.580Z,636.00
2022-09-26T09:16:10.950Z,648.00
2022-09-26T09:17:10.805Z,676.00
2022-09-26T09:18:13.655Z,700.00
2022-09-26T09:19:10.739Z,728.00
2022-09-26T09:20:10.704Z,780.00
2022-09-26T09:21:10.683Z,820.00
2022-09-26T09:22:10.641Z,840.00
2022-09-26T09:23:10.597Z,840.00
2022-09-26T09:24:10.566Z,836.00
2022-09-26T09:25:10.530Z,832.00
2022-09-26T09:28:10.427Z,948.00
2022-09-26T09:29:10.717Z,968.00
2022-09-26T09:30:16.496Z,952.00
2022-09-26T09:31:10.363Z,936.00
2022-09-26T09:32:10.296Z,948.00
2022-09-26T09:33:10.260Z,992.00
2022-09-26T09:34:10.217Z,1032.00
2022-09-26T09:35:10.192Z,1028.00
2022-09-26T09:36:10.154Z,1032.00
2022-09-26T09:37:10.128Z,984.00
2022-09-26T09:38:10.085Z,844.00
2022-09-26T09:39:10.047Z,744.00
2022-09-26T09:40:10.014Z,684.00
2022-09-26T09:41:09.977Z,672.00
2022-09-26T09:42:09.943Z,660.00
2022-09-26T09:43:09.912Z,636.00
2022-09-26T09:44:09.934Z,608.00
2022-09-26T09:45:09.863Z,628.00
2022-09-26T09:46:09.836Z,672.00
2022-09-26T09:47:09.791Z,696.00
2022-09-26T09:48:09.738Z,720.00
2022-09-26T09:49:09.721Z,736.00
2022-09-26T09:50:09.668Z,748.00
2022-09-26T09:51:09.633Z,752.00
2022-09-26T09:52:09.617Z,804.00
2022-09-26T09:53:09.579Z,744.00
2022-09-26T09:54:09.618Z,728.00
2022-09-26T09:55:09.507Z,716.00
2022-09-26T09:56:09.468Z,720.00
2022-09-26T09:57:09.430Z,724.00
2022-09-26T09:58:09.443Z,696.00
2022-09-26T09:59:09.360Z,676.00
2022-09-26T10:00:09.345Z,644.00
2022-09-26T10:01:09.292Z,616.00
2022-09-26T10:02:09.261Z,612.00
2022-09-26T10:03:09.341Z,588.00
2022-09-26T10:04:09.267Z,612.00
2022-09-26T10:05:09.151Z,620.00
2022-09-26T10:06:13.481Z,636.00
2022-09-26T10:07:09.084Z,632.00
2022-09-26T10:08:09.046Z,636.00
2022-09-26T10:09:35.615Z,664.00
2022-09-26T10:10:08.975Z,688.00
2022-09-26T10:11:08.943Z,728.00
2022-09-26T10:12:08.953Z,780.00
2022-09-26T10:13:08.870Z,840.00
2022-09-26T10:14:08.909Z,860.00
2022-09-26T10:15:08.797Z,852.00
2022-09-26T10:16:08.850Z,844.00
2022-09-26T10:17:08.734Z,856.00
2022-09-26T10:18:26.144Z,832.00
2022-09-26T10:19:08.686Z,836.00
2022-09-26T10:20:08.625Z,844.00
2022-09-26T10:21:08.593Z,864.00
2022-09-26T10:22:08.566Z,856.00
2022-09-26T10:23:08.518Z,844.00
2022-09-26T10:24:08.490Z,872.00
2022-09-26T10:25:08.480Z,892.00
2022-09-26T10:26:08.424Z,880.00
2022-09-26T10:27:08.380Z,880.00
2022-09-26T10:28:08.345Z,912.00
2022-09-26T10:29:08.388Z,940.00
2022-09-26T10:30:08.273Z,952.00
2022-09-26T10:31:08.372Z,944.00
2022-09-26T10:32:08.214Z,936.00
2022-09-26T10:33:08.172Z,976.00
2022-09-26T10:34:08.138Z,1040.00
2022-09-26T10:35:08.105Z,1132.00
2022-09-26T10:36:08.070Z,1152.00
2022-09-26T10:37:08.034Z,1184.00
2022-09-26T10:38:08.019Z,1252.00
2022-09-26T10:39:07.968Z,1252.00
2022-09-26T10:40:07.936Z,1200.00
2022-09-26T10:41:08.030Z,1124.00
2022-09-26T10:42:07.862Z,1064.00
2022-09-26T10:43:07.824Z,988.00
2022-09-26T10:44:07.799Z,980.00
2022-09-26T10:45:07.754Z,964.00
2022-09-26T10:46:07.858Z,968.00
2022-09-26T10:47:07.709Z,996.00
2022-09-26T10:48:07.662Z,1036.00
2022-09-26T10:49:07.628Z,1104.00
2022-09-26T10:50:07.585Z,1148.00
2022-09-26T10:51:07.550Z,1196.00
2022-09-26T10:52:07.513Z,1204.00
2022-09-26T10:53:07.487Z,1228.00
2022-09-26T10:54:07.529Z,1248.00
2022-09-26T10:55:07.411Z,1312.00
2022-09-26T10:56:07.394Z,1432.00
2022-09-26T10:57:07.348Z,1508.00
2022-09-26T10:58:12.855Z,1584.00
2022-09-26T10:59:07.286Z,1484.00
2022-09-26T11:00:07.235Z,1428.00
2022-09-26T11:01:07.200Z,1360.00
2022-09-26T11:02:07.209Z,1244.00
2022-09-26T11:03:07.218Z,1204.00
2022-09-26T11:04:07.218Z,1152.00
2022-09-26T11:05:07.062Z,1144.00
2022-09-26T11:06:07.132Z,1156.00
2022-09-26T11:07:07.004Z,1204.00
2022-09-26T11:08:06.961Z,1256.00
2022-09-26T11:09:06.928Z,1332.00
2022-09-26T11:10:06.894Z,1360.00
2022-09-26T11:11:06.864Z,1364.00
2022-09-26T11:12:06.909Z,1364.00
2022-09-26T11:13:06.797Z,1340.00
2022-09-26T11:14:06.829Z,1268.00
2022-09-26T11:15:06.717Z,1236.00
2022-09-26T11:16:06.745Z,1252.00
2022-09-26T11:17:06.648Z,1240.00
2022-09-26T11:18:06.619Z,1232.00
2022-09-26T11:19:06.690Z,1192.00
2022-09-26T11:20:06.553Z,1184.00
2022-09-26T11:21:18.300Z,1180.00
2022-09-26T11:22:08.425Z,1208.00
2022-09-26T11:23:06.449Z,1180.00
2022-09-26T11:24:06.477Z,1168.00
2022-09-26T11:25:06.381Z,1128.00
2022-09-26T11:26:06.351Z,1104.00
2022-09-26T11:27:06.311Z,1048.00
2022-09-26T11:28:06.275Z,1024.00
2022-09-26T11:29:06.348Z,984.00
2022-09-26T11:30:06.209Z,964.00
2022-09-26T11:31:06.257Z,912.00
2022-09-26T11:32:06.145Z,892.00
2022-09-26T11:33:06.106Z,904.00
2022-09-26T11:34:06.111Z,904.00
2022-09-26T11:35:06.040Z,920.00
2022-09-26T11:36:06.004Z,940.00
2022-09-26T11:37:05.982Z,984.00
2022-09-26T11:38:05.935Z,1008.00
2022-09-26T11:39:05.910Z,1016.00
2022-09-26T11:40:09.582Z,1040.00
2022-09-26T11:41:05.856Z,1040.00
2022-09-26T11:42:05.799Z,1048.00
2022-09-26T11:43:05.760Z,1080.00
2022-09-26T11:44:05.778Z,1040.00
2022-09-26T11:45:05.697Z,1048.00
2022-09-26T11:46:05.694Z,1032.00
2022-09-26T11:47:05.623Z,1032.00
2022-09-26T11:48:05.591Z,1020.00
2022-09-26T11:49:05.558Z,996.00
2022-09-26T11:50:05.524Z,988.00
2022-09-26T11:51:05.495Z,976.00
2022-09-26T11:52:05.454Z,980.00
2022-09-26T11:53:05.467Z,976.00
2022-09-26T11:54:05.404Z,1020.00
2022-09-26T11:55:05.349Z,1032.00
2022-09-26T11:56:05.316Z,1048.00
2022-09-26T11:57:05.285Z,1052.00
2022-09-26T11:58:05.247Z,1088.00
2022-09-26T11:59:05.220Z,1088.00
2022-09-26T12:00:05.181Z,1108.00
2022-09-26T12:01:05.151Z,1148.00
2022-09-26T12:02:05.114Z,1148.00
2022-09-26T12:03:05.226Z,1168.00
2022-09-26T12:04:05.109Z,1164.00
2022-09-26T12:05:05.026Z,1136.00
2022-09-26T12:06:04.983Z,1112.00
2022-09-26T12:07:04.942Z,1076.00
2022-09-26T12:08:04.915Z,1048.00
2022-09-26T12:09:04.874Z,1008.00
2022-09-26T12:10:04.846Z,996.00
2022-09-26T12:11:04.807Z,984.00
2022-09-26T12:12:04.778Z,992.00
2022-09-26T12:13:04.738Z,1012.00
2022-09-26T12:14:04.721Z,1020.00
2022-09-26T12:15:04.670Z,1048.00
2022-09-26T12:16:04.686Z,1080.00
2022-09-26T12:17:04.645Z,1120.00
2022-09-26T12:18:04.571Z,1176.00
2022-09-26T12:19:04.536Z,1216.00
2022-09-26T12:20:04.504Z,1216.00
2022-09-26T12:21:04.468Z,1164.00
2022-09-26T12:22:04.453Z,1100.00
2022-09-26T12:23:04.404Z,1048.00
2022-09-26T12:24:04.383Z,1020.00
2022-09-26T12:25:04.338Z,984.00
2022-09-26T12:26:04.302Z,984.00
2022-09-26T12:27:04.269Z,992.00
2022-09-26T12:28:04.237Z,992.00
2022-09-26T12:29:04.199Z,1000.00
2022-09-26T12:30:04.197Z,968.00
2022-09-26T12:31:04.195Z,924.00
2022-09-26T12:32:04.098Z,892.00
2022-09-26T12:33:04.072Z,888.00
2022-09-26T12:34:04.031Z,872.00
2022-09-26T12:35:03.998Z,816.00
2022-09-26T12:36:03.963Z,788.00
2022-09-26T12:37:03.933Z,752.00
2022-09-26T12:38:03.907Z,672.00
2022-09-26T12:39:03.892Z,596.00
2022-09-26T12:40:03.832Z,544.00
2022-09-26T12:41:03.862Z,504.00
2022-09-26T12:42:03.770Z,428.00
2022-09-26T12:43:03.729Z,384.00
2022-09-26T12:44:03.700Z,360.00
2022-09-26T12:45:03.693Z,340.00
2022-09-26T12:46:03.677Z,328.00
2022-09-26T12:47:03.597Z,324.00
2022-09-26T12:48:03.563Z,332.00
2022-09-26T12:49:03.547Z,348.00